Huron Regional Airport
KHON : rendu visible

Aérodrome :











RETROUVEZ-NOUS SUR...

 
LOGIN :

S'inscrire | Disclaimer

   EN    FR    IT 

 









Légende :    VFR   VFR Marginal   IFR   IFR Intensif   IFR Très Intensif
Visi : 
Plafond : 
>= 8 km
>= 3000ft
5 à 8 km
1000 à 3000 ft
1500m à 5 km
500 à 1000 ft
800 à 1500m
200 à 500 ft
< 800m
< 200 ft
Symboles :   Orages  Brouillard  Fortes neiges  Fortes précipitations  Vent > 20 kt






- Altitude de l'aérodrome : 1289 ft
- Code IATA : HON


KHON - Huron Regional

DERNIER METAR :
  • 220055Z AUTO 00000KT 10SM CLR M03/M06 A3010 RMK AO2 SLP212 T10281056

METARs EXPIRÉS :
  • 212355Z AUTO 00000KT 10SM CLR 01/M04 A3010 RMK AO2 SLP209 T00111044 10033 20000 58006
  • 212255Z AUTO 27003KT 10SM CLR 03/M04 A3011 RMK AO2 SLP211 T00281044

TAF KHON
Valide du 21 à 18h jusqu'au 22 à 18h UTC


211729Z 2118/2218 22005KT P6SM SKC
FM220300 19005KT P6SM SKC
FM220900 17007KT 3SM BR VCFG FEW250
FM221600 VRB04KT P6SM SCT200



MET'MAP, la Météo Aéronautique d'un coup d'oeil ! - Copyright ORBIFLY Décembre 2007 - Disclaimer

ORBIFLY MET'MAP TEAM :

Programmation & Développement : Alexandra Zaïnal
Sur une idée originale de : Baudouin d'Aumeries
Assistance à la programmation : Marc-Olivier Méhu
Soutien technique & logistique : Manuel Goepfert

Contact : metmap@orbifly.com




SOURCES & CREDITS :

   NOAA       Earth
Advisory